Time;durP1;ratioP1;P1;durP2;ratioP2;P2;SDS_P1;SDS_P2;PMS_P1;PMS_P2;Temp;Humidity;BMP_temperature;BMP_pressure;BME280_temperature;BME280_humidity;BME280_pressure;Samples;Min_cycle;Max_cycle;Signal;HPM_P1;HPM_P2
2023/08/23 00:00:29;;;;;;;5.57;4.43;;;19.00;99.90;;;;;;4983320;28;20365;-73
2023/08/23 00:02:55;;;;;;;6.53;4.93;;;19.00;99.90;;;;;;4989971;28;20170;-72
2023/08/23 00:05:21;;;;;;;6.87;4.23;;;19.00;99.90;;;;;;4984753;28;20260;-73
2023/08/23 00:07:46;;;;;;;4.90;3.73;;;19.00;99.90;;;;;;4982751;28;20207;-72
2023/08/23 00:10:12;;;;;;;4.67;4.27;;;19.00;99.90;;;;;;4982331;28;20438;-72
2023/08/23 00:12:38;;;;;;;9.27;6.43;;;19.00;99.90;;;;;;4977566;28;20184;-72
2023/08/23 00:15:04;;;;;;;5.20;4.30;;;19.00;99.90;;;;;;4983987;28;20176;-72
2023/08/23 00:17:29;;;;;;;9.80;4.47;;;19.00;99.90;;;;;;4993521;28;20269;-72
2023/08/23 00:19:55;;;;;;;5.70;4.07;;;18.90;99.90;;;;;;4985491;28;20458;-72
2023/08/23 00:22:21;;;;;;;8.07;4.30;;;18.90;99.90;;;;;;4984239;28;20674;-72
2023/08/23 00:24:46;;;;;;;6.70;4.33;;;18.90;99.90;;;;;;4980414;28;20244;-72
2023/08/23 00:27:12;;;;;;;5.00;4.10;;;19.00;99.90;;;;;;4982888;28;20225;-72
2023/08/23 00:29:37;;;;;;;7.07;5.00;;;18.90;99.90;;;;;;4984788;28;20182;-72
2023/08/23 00:32:03;;;;;;;7.93;5.10;;;18.90;99.90;;;;;;4983834;28;20371;-72
2023/08/23 00:34:29;;;;;;;7.30;4.90;;;18.90;99.90;;;;;;4990713;28;20167;-72
2023/08/23 00:36:54;;;;;;;5.13;4.73;;;18.90;99.90;;;;;;4983020;28;20601;-72
2023/08/23 00:39:20;;;;;;;8.00;5.10;;;18.90;99.90;;;;;;4983587;28;20178;-72
2023/08/23 00:41:46;;;;;;;5.53;5.13;;;18.80;99.90;;;;;;4987270;28;20194;-72
2023/08/23 00:44:11;;;;;;;6.93;5.03;;;18.80;99.90;;;;;;4980908;28;20176;-72
2023/08/23 00:46:38;;;;;;;7.53;4.43;;;18.80;99.90;;;;;;4979214;28;20199;-72
2023/08/23 00:49:04;;;;;;;6.87;4.20;;;18.80;99.90;;;;;;4982314;28;20261;-72
2023/08/23 00:51:30;;;;;;;5.40;4.43;;;18.70;99.90;;;;;;4990275;28;20424;-72
2023/08/23 00:53:57;;;;;;;7.90;4.83;;;18.70;99.90;;;;;;4982278;28;20473;-72
2023/08/23 00:56:23;;;;;;;6.70;4.63;;;18.70;99.90;;;;;;4984016;28;20473;-72
2023/08/23 00:58:49;;;;;;;7.60;5.00;;;18.70;99.90;;;;;;4986978;28;20454;-73
2023/08/23 01:01:14;;;;;;;5.00;4.60;;;18.70;99.90;;;;;;4984216;28;20462;-72
2023/08/23 01:03:40;;;;;;;6.70;4.60;;;18.70;99.90;;;;;;4985814;28;20846;-72
2023/08/23 01:06:34;;;;;;;6.17;4.83;;;18.60;99.90;;;;;;4982366;28;20264;-72
2023/08/23 01:09:03;;;;;;;9.17;5.23;;;18.60;99.90;;;;;;4974612;28;20177;-72
2023/08/23 01:11:41;;;;;;;6.33;4.57;;;18.60;99.90;;;;;;4984295;28;20414;-72
2023/08/23 01:14:21;;;;;;;6.47;4.53;;;18.60;99.90;;;;;;4984207;28;20601;-72
2023/08/23 01:16:48;;;;;;;5.90;5.40;;;18.60;99.90;;;;;;4986116;28;20499;-72
2023/08/23 01:19:45;;;;;;;7.10;5.80;;;18.60;99.90;;;;;;4984469;28;20901;-72
2023/08/23 01:22:16;;;;;;;6.90;5.20;;;18.60;99.90;;;;;;4979795;28;20430;-72
2023/08/23 01:24:42;;;;;;;8.80;5.50;;;18.60;99.90;;;;;;4987294;28;20410;-72
2023/08/23 01:27:07;;;;;;;5.53;4.87;;;18.50;99.90;;;;;;4981836;28;20425;-72
2023/08/23 01:29:33;;;;;;;5.77;5.00;;;18.50;99.90;;;;;;4988612;28;20922;-72
2023/08/23 01:32:21;;;;;;;5.03;4.53;;;18.50;99.90;;;;;;4981261;28;20178;-72
2023/08/23 01:34:53;;;;;;;4.97;4.20;;;18.50;99.90;;;;;;4975533;28;20622;-72
2023/08/23 01:37:21;;;;;;;4.70;4.30;;;18.40;99.90;;;;;;4974142;28;20445;-72
2023/08/23 01:39:48;;;;;;;5.07;4.20;;;18.40;99.90;;;;;;4979183;28;20429;-72
2023/08/23 01:42:14;;;;;;;5.70;5.20;;;18.40;99.90;;;;;;4981554;28;20409;-72
2023/08/23 01:44:43;;;;;;;9.03;4.63;;;18.40;99.90;;;;;;4982496;28;20782;-72
2023/08/23 01:47:08;;;;;;;5.57;4.97;;;18.30;99.90;;;;;;4983799;28;20202;-72
2023/08/23 01:49:34;;;;;;;5.37;4.43;;;18.40;99.90;;;;;;4984041;28;20498;-72
2023/08/23 01:52:00;;;;;;;9.00;4.73;;;18.30;99.90;;;;;;4985836;28;20179;-71
2023/08/23 01:54:25;;;;;;;5.13;4.60;;;18.30;99.90;;;;;;4982241;28;20194;-71
2023/08/23 01:56:51;;;;;;;5.37;4.83;;;18.30;99.90;;;;;;4969448;28;20219;-71
2023/08/23 01:59:16;;;;;;;7.23;5.30;;;18.30;99.90;;;;;;4981163;28;20181;-72
2023/08/23 02:01:42;;;;;;;5.67;5.00;;;18.30;99.90;;;;;;4983321;28;20269;-71
2023/08/23 02:04:07;;;;;;;5.00;4.53;;;18.30;99.90;;;;;;4983931;28;20182;-71
2023/08/23 02:06:33;;;;;;;7.23;4.80;;;18.30;99.90;;;;;;4983926;28;20318;-71
2023/08/23 02:08:59;;;;;;;10.27;5.70;;;18.20;99.90;;;;;;4977131;28;20582;-71
2023/08/23 02:11:24;;;;;;;5.30;4.63;;;18.30;99.90;;;;;;4983371;28;20238;-71
2023/08/23 02:13:50;;;;;;;5.53;4.97;;;18.20;99.90;;;;;;4984440;28;20666;-71
2023/08/23 02:16:15;;;;;;;5.90;5.40;;;18.20;99.90;;;;;;4983412;28;20199;-71
2023/08/23 02:18:41;;;;;;;5.40;4.87;;;18.20;99.90;;;;;;4983957;28;20220;-71
2023/08/23 02:21:06;;;;;;;6.70;5.53;;;18.20;99.90;;;;;;4984184;28;20551;-71
2023/08/23 02:23:32;;;;;;;7.73;5.30;;;18.10;99.90;;;;;;4983791;28;20641;-72
2023/08/23 02:25:57;;;;;;;5.30;4.70;;;18.20;99.90;;;;;;4977735;28;20204;-72
2023/08/23 02:28:23;;;;;;;5.30;4.77;;;18.20;99.90;;;;;;4982631;28;20217;-71
2023/08/23 02:30:49;;;;;;;7.00;5.23;;;18.10;99.90;;;;;;4984515;28;20174;-71
2023/08/23 02:33:14;;;;;;;5.57;4.97;;;18.10;99.90;;;;;;4990064;28;20178;-71
2023/08/23 02:35:44;;;;;;;6.70;5.83;;;18.10;99.90;;;;;;4990850;28;20173;-71
2023/08/23 02:38:10;;;;;;;7.97;6.00;;;18.10;99.90;;;;;;4988513;28;20209;-71
2023/08/23 02:40:40;;;;;;;6.00;5.00;;;18.00;99.90;;;;;;4981817;28;20456;-71
2023/08/23 02:43:06;;;;;;;5.60;5.10;;;18.00;99.90;;;;;;4983764;28;20441;-72
2023/08/23 02:45:31;;;;;;;5.90;5.37;;;18.00;99.90;;;;;;4983306;28;20891;-72
2023/08/23 02:47:57;;;;;;;5.90;5.13;;;18.00;99.90;;;;;;4983828;28;20189;-71
2023/08/23 02:50:22;;;;;;;6.27;5.40;;;18.10;99.90;;;;;;4983624;28;20182;-71
2023/08/23 02:52:48;;;;;;;5.70;5.07;;;18.10;99.90;;;;;;4986674;28;20636;-71
2023/08/23 02:55:13;;;;;;;6.10;5.43;;;18.10;99.90;;;;;;4979829;28;20190;-72
2023/08/23 02:57:39;;;;;;;6.20;5.63;;;18.10;99.90;;;;;;4987700;28;20328;-72
2023/08/23 03:00:05;;;;;;;6.97;5.47;;;18.10;99.90;;;;;;4987111;28;20325;-72
2023/08/23 03:02:32;;;;;;;6.00;5.40;;;18.00;99.90;;;;;;4985192;28;20521;-71
2023/08/23 03:04:58;;;;;;;5.23;4.73;;;18.00;99.90;;;;;;4987647;28;20923;-71
2023/08/23 03:07:23;;;;;;;8.10;5.27;;;18.00;99.90;;;;;;4985380;28;20444;-71
2023/08/23 03:09:49;;;;;;;6.37;5.77;;;18.00;99.90;;;;;;4987426;28;20672;-71
2023/08/23 03:12:14;;;;;;;6.70;6.03;;;18.00;99.90;;;;;;4986376;28;20166;-73
2023/08/23 03:14:40;;;;;;;6.40;5.53;;;18.00;99.90;;;;;;4987460;28;20248;-71
2023/08/23 03:17:06;;;;;;;10.83;5.40;;;18.00;99.90;;;;;;4987258;28;20191;-71
2023/08/23 03:19:32;;;;;;;6.40;5.67;;;18.00;99.90;;;;;;4985187;28;20860;-71
2023/08/23 03:21:58;;;;;;;8.43;6.33;;;18.00;99.90;;;;;;4987213;28;20197;-72
2023/08/23 03:24:23;;;;;;;7.53;5.77;;;18.00;99.90;;;;;;4985232;28;20503;-72
2023/08/23 03:26:49;;;;;;;9.83;6.10;;;18.00;99.90;;;;;;4987108;28;20197;-72
2023/08/23 03:29:14;;;;;;;5.90;5.30;;;18.00;99.90;;;;;;4985937;28;20189;-72
2023/08/23 03:31:40;;;;;;;6.57;5.57;;;18.00;99.90;;;;;;4987022;28;20171;-74
2023/08/23 03:34:06;;;;;;;7.00;5.10;;;18.00;99.90;;;;;;4985082;28;20176;-72
2023/08/23 03:36:31;;;;;;;5.93;5.33;;;18.00;99.90;;;;;;4986638;28;20204;-72
2023/08/23 03:38:57;;;;;;;8.20;5.50;;;18.00;99.90;;;;;;4986824;28;20181;-71
2023/08/23 03:41:22;;;;;;;6.17;5.63;;;18.00;99.90;;;;;;4985327;28;20297;-71
2023/08/23 03:43:48;;;;;;;9.43;6.60;;;18.00;99.90;;;;;;4986983;28;20637;-71
2023/08/23 03:46:13;;;;;;;10.40;7.07;;;17.90;99.90;;;;;;4985678;28;20197;-71
2023/08/23 03:48:39;;;;;;;10.53;5.73;;;17.90;99.90;;;;;;4987223;28;20181;-72
2023/08/23 03:51:05;;;;;;;8.50;6.20;;;17.90;99.90;;;;;;4985433;28;20546;-72
2023/08/23 03:53:30;;;;;;;8.17;6.33;;;17.90;99.90;;;;;;4986548;28;20191;-72
2023/08/23 03:55:56;;;;;;;6.43;5.80;;;17.90;99.90;;;;;;4986680;28;20652;-72
2023/08/23 03:58:21;;;;;;;6.20;5.70;;;18.00;99.90;;;;;;4984670;28;20523;-72
2023/08/23 04:00:52;;;;;;;8.30;5.20;;;17.90;99.90;;;;;;4986636;28;20193;-72
2023/08/23 04:03:18;;;;;;;9.80;6.60;;;17.90;99.90;;;;;;4985132;28;20392;-72
2023/08/23 04:05:44;;;;;;;8.07;6.00;;;17.90;99.90;;;;;;4984905;28;20401;-72
2023/08/23 04:08:10;;;;;;;6.80;6.10;;;17.90;99.90;;;;;;4979836;28;20731;-72
2023/08/23 04:10:36;;;;;;;7.23;5.40;;;17.90;99.90;;;;;;4979596;28;20552;-72
2023/08/23 04:13:02;;;;;;;6.17;5.53;;;17.90;99.90;;;;;;4988988;28;20504;-72
2023/08/23 04:15:27;;;;;;;7.23;6.53;;;17.90;99.90;;;;;;4983844;28;20494;-72
2023/08/23 04:17:53;;;;;;;9.00;6.13;;;17.90;99.90;;;;;;4988384;28;20198;-72
2023/08/23 04:20:18;;;;;;;10.63;6.77;;;17.90;99.90;;;;;;4984880;28;20200;-72
2023/08/23 04:22:44;;;;;;;6.10;5.53;;;17.90;99.90;;;;;;4982836;28;20179;-72
2023/08/23 04:25:11;;;;;;;6.80;6.20;;;17.90;99.90;;;;;;4983493;28;20173;-72
2023/08/23 04:27:37;;;;;;;9.13;5.80;;;17.90;99.90;;;;;;4979047;28;20202;-72
2023/08/23 04:30:06;;;;;;;8.30;7.47;;;18.00;99.90;;;;;;4988545;28;20463;-72
2023/08/23 04:32:32;;;;;;;8.43;7.60;;;17.90;99.90;;;;;;4983057;28;20229;-73
2023/08/23 04:34:58;;;;;;;6.30;5.80;;;18.00;99.90;;;;;;4989089;28;20455;-71
2023/08/23 04:37:23;;;;;;;8.73;5.90;;;18.00;99.90;;;;;;4984622;28;20843;-72
2023/08/23 04:39:49;;;;;;;7.30;6.60;;;18.10;99.90;;;;;;4981229;28;20192;-72
2023/08/23 04:42:15;;;;;;;8.17;5.10;;;18.10;99.90;;;;;;4989567;28;20304;-71
2023/08/23 04:44:40;;;;;;;10.43;6.50;;;18.10;99.90;;;;;;4982503;28;20644;-72
2023/08/23 04:47:06;;;;;;;6.03;5.43;;;18.10;99.90;;;;;;4989092;28;20280;-72
2023/08/23 04:49:32;;;;;;;9.23;6.60;;;18.10;99.90;;;;;;4982745;28;20191;-72
2023/08/23 04:51:58;;;;;;;10.80;6.33;;;18.10;99.90;;;;;;4988565;28;20503;-72
2023/08/23 04:54:24;;;;;;;7.33;5.90;;;18.20;99.90;;;;;;4983970;28;20175;-72
2023/08/23 04:56:49;;;;;;;6.90;6.30;;;18.20;99.90;;;;;;4973458;28;20286;-72
2023/08/23 04:59:15;;;;;;;7.00;5.87;;;18.20;99.90;;;;;;4988337;28;20177;-72
2023/08/23 05:01:41;;;;;;;6.97;6.20;;;18.20;99.90;;;;;;4982250;28;21709;-71
2023/08/23 05:04:07;;;;;;;7.10;5.17;;;18.30;99.90;;;;;;4984330;28;20212;-72
2023/08/23 05:06:34;;;;;;;8.67;7.10;;;18.30;99.90;;;;;;4985506;28;20208;-71
2023/08/23 05:09:00;;;;;;;6.50;5.80;;;18.40;99.90;;;;;;4984843;28;20433;-71
2023/08/23 05:11:25;;;;;;;6.20;5.57;;;18.40;99.90;;;;;;4984072;28;20419;-71
2023/08/23 05:13:51;;;;;;;8.57;6.10;;;18.40;99.90;;;;;;4984965;28;20177;-71
2023/08/23 05:16:17;;;;;;;7.43;6.10;;;18.40;99.90;;;;;;4982509;28;20208;-71
2023/08/23 05:18:43;;;;;;;8.33;5.47;;;18.50;99.90;;;;;;4988424;28;20167;-71
2023/08/23 05:21:09;;;;;;;6.33;5.73;;;18.60;99.90;;;;;;4981762;28;20228;-71
2023/08/23 05:23:34;;;;;;;6.43;5.63;;;18.60;99.90;;;;;;4985472;28;20179;-71
2023/08/23 05:26:02;;;;;;;7.07;6.47;;;18.60;99.90;;;;;;4985154;28;20795;-71
2023/08/23 05:28:28;;;;;;;7.30;6.03;;;18.70;99.90;;;;;;4983958;28;20169;-73
2023/08/23 05:30:53;;;;;;;7.93;6.17;;;18.70;99.90;;;;;;4982480;28;20433;-72
2023/08/23 05:33:19;;;;;;;7.27;5.50;;;18.90;99.90;;;;;;4982808;28;20187;-71
2023/08/23 05:35:44;;;;;;;7.27;5.13;;;18.90;99.90;;;;;;4991721;28;20195;-71
2023/08/23 05:38:13;;;;;;;5.93;5.33;;;19.00;99.90;;;;;;4984330;28;20191;-69
2023/08/23 05:40:39;;;;;;;6.50;4.90;;;19.10;99.90;;;;;;4974989;28;20199;-70
2023/08/23 05:43:06;;;;;;;6.47;5.53;;;19.50;99.90;;;;;;4996704;23;21038;-66
2023/08/23 05:45:31;;;;;;;8.10;4.97;;;19.70;99.90;;;;;;4977338;28;20169;-67
2023/08/23 05:47:59;;;;;;;9.27;5.87;;;19.90;99.90;;;;;;4976794;28;20977;-65
2023/08/23 05:50:25;;;;;;;11.10;5.13;;;20.00;99.90;;;;;;4983381;28;20198;-66
2023/08/23 05:52:50;;;;;;;6.40;5.83;;;20.60;99.90;;;;;;4983625;28;20835;-67
2023/08/23 05:55:16;;;;;;;4.47;4.17;;;21.10;99.90;;;;;;4988731;28;20462;-67
2023/08/23 05:57:42;;;;;;;6.03;4.40;;;21.60;99.90;;;;;;4981388;28;20260;-68
2023/08/23 06:00:09;;;;;;;5.33;4.20;;;22.00;99.90;;;;;;4979429;28;20284;-67
2023/08/23 06:02:35;;;;;;;7.13;5.57;;;22.10;99.90;;;;;;4983833;28;20465;-68
2023/08/23 06:05:03;;;;;;;4.67;4.23;;;22.40;99.90;;;;;;4975021;28;20502;-68
2023/08/23 06:07:29;;;;;;;4.37;3.97;;;22.60;99.90;;;;;;4988532;28;20851;-67
2023/08/23 06:09:55;;;;;;;4.37;4.00;;;22.50;99.90;;;;;;4977692;28;20409;-68
2023/08/23 06:12:24;;;;;;;6.53;4.20;;;22.70;99.90;;;;;;4990006;28;20873;-68
2023/08/23 06:14:49;;;;;;;5.80;4.50;;;23.40;99.90;;;;;;4984245;28;20174;-67
2023/08/23 06:17:16;;;;;;;7.57;4.50;;;23.60;99.90;;;;;;4974681;28;20480;-68
2023/08/23 06:19:42;;;;;;;4.13;3.80;;;23.90;99.90;;;;;;4987792;28;20210;-67
2023/08/23 06:22:08;;;;;;;11.50;4.30;;;24.50;99.90;;;;;;4974495;28;20899;-69
2023/08/23 06:24:34;;;;;;;6.30;4.60;;;24.70;99.90;;;;;;4987045;28;20447;-67
2023/08/23 06:26:59;;;;;;;4.80;4.37;;;24.80;99.90;;;;;;4976589;28;20429;-66
2023/08/23 06:29:25;;;;;;;4.80;3.87;;;24.90;99.90;;;;;;4987567;28;20180;-67
2023/08/23 06:31:50;;;;;;;6.27;4.23;;;24.60;99.90;;;;;;4975216;28;20211;-67
2023/08/23 06:34:16;;;;;;;6.53;4.27;;;24.60;99.90;;;;;;4981895;28;20522;-68
2023/08/23 06:36:42;;;;;;;7.73;3.90;;;25.40;99.90;;;;;;4982789;28;20173;-68
2023/08/23 06:39:07;;;;;;;5.00;4.60;;;24.80;99.90;;;;;;4980686;28;20169;-67
2023/08/23 06:41:33;;;;;;;7.53;4.03;;;25.40;99.90;;;;;;4990924;28;20200;-67
2023/08/23 06:44:02;;;;;;;4.43;3.67;;;25.50;99.90;;;;;;4982134;28;20249;-67
2023/08/23 06:46:28;;;;;;;8.50;7.60;;;26.10;99.90;;;;;;4979542;28;20184;-67
2023/08/23 06:48:55;;;;;;;4.90;3.87;;;26.80;99.90;;;;;;4981277;28;20411;-68
2023/08/23 06:51:21;;;;;;;4.13;3.73;;;26.80;99.90;;;;;;4979869;28;20405;-67
2023/08/23 06:53:47;;;;;;;4.47;3.50;;;26.90;99.90;;;;;;4991259;28;20946;-67
2023/08/23 06:56:13;;;;;;;5.37;4.23;;;26.50;99.90;;;;;;4975094;28;20412;-71
2023/08/23 06:58:39;;;;;;;6.83;4.93;;;27.00;99.90;;;;;;4976537;28;20416;-67
2023/08/23 07:01:14;;;;;;;4.27;3.23;;;26.80;99.90;;;;;;4982254;28;20291;-68
2023/08/23 07:03:43;;;;;;;8.60;3.47;;;27.60;99.90;;;;;;4969923;28;20200;-69
2023/08/23 07:06:13;;;;;;;5.43;3.47;;;27.60;99.90;;;;;;4980538;28;20857;-67
2023/08/23 07:08:43;;;;;;;5.57;4.23;;;27.80;99.90;;;;;;4981775;28;20949;-65
2023/08/23 07:11:09;;;;;;;8.93;4.60;;;27.40;99.90;;;;;;4983750;28;20435;-66
2023/08/23 07:13:36;;;;;;;4.30;3.30;;;28.10;99.90;;;;;;4981417;28;20490;-66
2023/08/23 07:16:03;;;;;;;5.20;3.57;;;28.10;99.90;;;;;;4983639;28;20443;-69
2023/08/23 07:18:29;;;;;;;5.13;3.27;;;27.90;99.90;;;;;;4981892;28;20776;-66
2023/08/23 07:20:54;;;;;;;10.00;3.70;;;28.30;99.90;;;;;;4976306;28;20467;-67
2023/08/23 07:23:20;;;;;;;5.30;3.50;;;29.00;99.90;;;;;;4989033;28;20432;-67
2023/08/23 07:25:46;;;;;;;3.90;3.30;;;28.10;99.90;;;;;;4984018;28;20256;-68
2023/08/23 07:28:11;;;;;;;3.53;3.20;;;27.30;99.90;;;;;;4980305;28;20178;-66
2023/08/23 07:30:38;;;;;;;5.90;3.17;;;27.30;99.90;;;;;;4985795;28;20186;-67
2023/08/23 07:33:03;;;;;;;4.07;2.50;;;27.60;99.90;;;;;;4980032;28;20186;-67
2023/08/23 07:35:30;;;;;;;4.10;2.60;;;27.70;99.90;;;;;;4987043;28;20420;-67
2023/08/23 07:37:55;;;;;;;2.97;2.33;;;28.10;99.90;;;;;;4979898;28;20264;-67
2023/08/23 07:40:21;;;;;;;3.43;2.33;;;28.10;99.90;;;;;;4983592;28;20551;-67
2023/08/23 07:42:46;;;;;;;2.40;2.20;;;28.20;99.90;;;;;;4977818;28;20686;-68
2023/08/23 07:45:12;;;;;;;2.73;2.03;;;27.70;99.90;;;;;;4982680;28;20177;-66
2023/08/23 07:47:38;;;;;;;4.07;2.83;;;28.50;99.90;;;;;;4989260;28;20165;-68
2023/08/23 07:50:04;;;;;;;2.23;2.03;;;28.40;99.90;;;;;;4984766;28;20671;-66
2023/08/23 07:52:29;;;;;;;2.73;2.07;;;27.80;99.90;;;;;;4985676;28;20185;-67
2023/08/23 07:54:55;;;;;;;5.03;2.07;;;27.80;99.90;;;;;;4987445;28;20204;-66
2023/08/23 07:57:21;;;;;;;5.80;2.37;;;28.00;99.90;;;;;;4981345;28;20177;-68
2023/08/23 07:59:46;;;;;;;6.20;2.13;;;28.90;99.90;;;;;;4986096;28;20177;-66
2023/08/23 08:02:12;;;;;;;2.13;1.80;;;28.50;99.90;;;;;;4984977;28;20310;-67
2023/08/23 08:04:37;;;;;;;7.50;2.20;;;28.50;99.90;;;;;;4977506;28;20179;-68
2023/08/23 08:07:03;;;;;;;2.83;2.33;;;28.20;99.90;;;;;;4977111;28;20180;-67
2023/08/23 08:09:29;;;;;;;4.77;2.67;;;28.70;99.90;;;;;;4977378;28;20655;-69
2023/08/23 08:11:55;;;;;;;1.60;1.50;;;28.90;99.90;;;;;;4987557;28;20719;-67
2023/08/23 08:14:21;;;;;;;4.10;2.43;;;29.30;99.90;;;;;;4981819;28;20505;-68
2023/08/23 08:16:46;;;;;;;2.50;2.27;;;29.10;99.90;;;;;;4985564;28;20263;-69
2023/08/23 08:19:12;;;;;;;6.50;2.43;;;28.20;99.90;;;;;;4985615;28;20655;-68
2023/08/23 08:21:37;;;;;;;4.13;2.10;;;28.40;99.90;;;;;;4999902;28;20193;-68
2023/08/23 08:24:03;;;;;;;6.80;2.10;;;28.90;99.90;;;;;;4986557;28;20247;-68
2023/08/23 08:26:29;;;;;;;3.40;2.33;;;29.20;99.90;;;;;;4979943;28;20173;-69
2023/08/23 08:28:54;;;;;;;3.13;2.10;;;29.20;99.90;;;;;;4986189;28;20695;-68
2023/08/23 08:31:20;;;;;;;2.67;2.47;;;28.60;99.90;;;;;;4984826;28;20177;-69
2023/08/23 08:33:46;;;;;;;8.43;2.60;;;28.00;99.90;;;;;;4985372;28;20193;-67
2023/08/23 08:36:12;;;;;;;5.00;2.67;;;27.50;99.90;;;;;;4984730;28;20270;-68
2023/08/23 08:38:38;;;;;;;3.20;2.90;;;28.20;99.90;;;;;;4984583;28;20866;-68
2023/08/23 08:41:04;;;;;;;3.70;2.27;;;27.30;99.90;;;;;;4986053;28;20981;-68
2023/08/23 08:43:31;;;;;;;6.47;2.80;;;27.80;99.90;;;;;;4985377;28;20451;-69
2023/08/23 08:45:57;;;;;;;6.97;2.97;;;28.10;99.90;;;;;;4986349;28;20600;-69
2023/08/23 08:48:23;;;;;;;6.17;2.33;;;28.80;99.90;;;;;;4983427;28;20511;-69
2023/08/23 08:50:49;;;;;;;2.97;2.40;;;28.60;99.90;;;;;;4981643;28;20504;-69
2023/08/23 08:53:17;;;;;;;3.50;2.30;;;28.80;99.90;;;;;;4973909;28;20194;-68
2023/08/23 08:55:45;;;;;;;3.30;2.90;;;28.10;99.90;;;;;;4974633;28;20224;-70
2023/08/23 08:58:15;;;;;;;8.20;2.50;;;28.10;99.90;;;;;;4982093;28;20445;-69
2023/08/23 09:00:42;;;;;;;3.37;2.50;;;28.50;99.90;;;;;;4973750;28;20543;-68
2023/08/23 09:03:08;;;;;;;4.30;2.30;;;29.10;99.90;;;;;;4982781;28;20436;-69
2023/08/23 09:05:34;;;;;;;7.40;5.10;;;28.80;99.90;;;;;;4994262;28;20416;-68
2023/08/23 09:08:00;;;;;;;5.13;2.87;;;28.60;99.90;;;;;;4985995;28;20426;-68
2023/08/23 09:10:26;;;;;;;5.43;4.90;;;28.80;99.90;;;;;;4989648;28;20452;-67
2023/08/23 09:12:52;;;;;;;4.77;3.70;;;28.50;99.90;;;;;;4975217;28;20281;-67
2023/08/23 09:15:23;;;;;;;2.83;2.27;;;28.20;99.90;;;;;;4978294;28;20185;-69
2023/08/23 09:17:50;;;;;;;7.63;5.63;;;28.00;99.90;;;;;;4987515;28;20640;-68
2023/08/23 09:20:16;;;;;;;3.40;2.30;;;27.50;99.90;;;;;;4983138;28;20463;-68
2023/08/23 09:22:42;;;;;;;8.70;2.20;;;28.00;99.90;;;;;;4987711;28;20516;-69
2023/08/23 09:25:08;;;;;;;2.70;2.03;;;28.00;99.90;;;;;;4978250;28;20256;-68
2023/08/23 09:27:36;;;;;;;3.50;2.13;;;27.90;99.90;;;;;;4988767;28;20185;-68
2023/08/23 09:30:04;;;;;;;2.37;2.17;;;28.10;99.90;;;;;;4976185;28;20472;-68
2023/08/23 09:32:30;;;;;;;3.80;2.30;;;28.30;99.90;;;;;;4973771;28;20449;-68
2023/08/23 09:34:57;;;;;;;4.43;2.10;;;28.00;99.90;;;;;;4977170;28;20985;-69
2023/08/23 09:37:23;;;;;;;4.93;4.23;;;28.00;99.90;;;;;;4976485;28;20181;-69
2023/08/23 09:39:49;;;;;;;3.33;2.60;;;28.90;99.90;;;;;;4991129;28;20416;-70
2023/08/23 09:42:17;;;;;;;3.40;3.10;;;28.80;99.90;;;;;;4975761;28;20217;-69
2023/08/23 09:44:48;;;;;;;2.80;2.47;;;28.80;99.90;;;;;;4984531;28;20182;-68
2023/08/23 09:47:16;;;;;;;5.80;2.33;;;29.80;99.90;;;;;;4977274;28;20408;-68
2023/08/23 09:49:43;;;;;;;2.73;2.00;;;28.00;99.90;;;;;;4983683;28;20796;-67
2023/08/23 09:52:11;;;;;;;3.17;2.60;;;27.40;99.90;;;;;;4975219;28;20823;-68
2023/08/23 09:55:11;;;;;;;2.37;1.80;;;28.50;99.90;;;;;;4974754;28;20409;-70
2023/08/23 09:57:38;;;;;;;3.37;1.60;;;29.10;99.90;;;;;;4972680;28;20421;-69
2023/08/23 10:00:04;;;;;;;2.27;2.10;;;29.10;99.90;;;;;;4972969;28;20421;-69
2023/08/23 10:02:36;;;;;;;4.07;2.23;;;29.10;99.90;;;;;;4966158;28;20474;-72
2023/08/23 10:05:04;;;;;;;4.10;2.10;;;28.60;99.90;;;;;;4989453;28;20446;-71
2023/08/23 10:07:36;;;;;;;3.77;1.90;;;28.30;99.90;;;;;;4990719;28;20427;-68
2023/08/23 10:10:03;;;;;;;2.40;2.17;;;28.20;99.90;;;;;;4956161;28;20413;-68
2023/08/23 10:12:30;;;;;;;4.80;3.00;;;28.00;99.90;;;;;;4985220;28;20623;-68
2023/08/23 10:14:58;;;;;;;5.87;2.20;;;27.80;99.90;;;;;;4976382;28;20421;-68
2023/08/23 10:17:24;;;;;;;2.30;2.10;;;28.00;99.90;;;;;;4965737;28;20416;-69
2023/08/23 10:19:52;;;;;;;2.30;1.93;;;27.80;99.90;;;;;;4972587;28;20413;-68
2023/08/23 10:22:20;;;;;;;3.80;1.67;;;27.30;99.90;;;;;;4987556;28;20451;-68
2023/08/23 10:24:53;;;;;;;1.73;1.63;;;27.40;99.90;;;;;;4959532;28;20420;-69
2023/08/23 10:27:22;;;;;;;3.03;1.60;;;27.40;99.90;;;;;;4975799;28;20412;-68
2023/08/23 10:29:51;;;;;;;5.03;2.00;;;26.90;99.90;;;;;;4979497;28;20420;-68
2023/08/23 10:32:17;;;;;;;3.50;1.70;;;27.20;99.90;;;;;;4973908;28;20454;-68
2023/08/23 10:34:43;;;;;;;2.63;1.50;;;26.90;99.90;;;;;;4984900;28;20427;-68
2023/08/23 10:37:19;;;;;;;1.83;1.73;;;26.90;99.90;;;;;;4964734;28;20436;-68
2023/08/23 10:39:50;;;;;;;3.23;1.93;;;27.40;99.90;;;;;;4967823;28;20946;-67
2023/08/23 10:42:17;;;;;;;6.33;1.63;;;27.20;99.90;;;;;;4972578;28;20560;-67
2023/08/23 10:44:56;;;;;;;3.57;1.90;;;27.00;99.90;;;;;;4984082;28;20845;-67
2023/08/23 10:47:23;;;;;;;6.23;4.67;;;27.10;99.90;;;;;;4978322;28;20418;-67
2023/08/23 10:49:50;;;;;;;1.43;1.33;;;27.20;99.90;;;;;;4983821;28;20510;-67
2023/08/23 10:52:17;;;;;;;3.30;1.40;;;26.80;99.90;;;;;;4978682;28;20462;-67
2023/08/23 10:54:43;;;;;;;3.30;2.50;;;25.80;99.90;;;;;;4965669;28;20409;-69
2023/08/23 10:57:09;;;;;;;1.70;1.60;;;25.40;99.90;;;;;;4975122;28;20430;-69
2023/08/23 10:59:36;;;;;;;1.90;1.70;;;25.80;99.90;;;;;;4981080;28;20915;-69
2023/08/23 11:02:02;;;;;;;5.17;2.47;;;26.00;99.90;;;;;;4969604;28;20474;-67
2023/08/23 11:04:27;;;;;;;2.50;2.23;;;26.20;99.90;;;;;;4976220;28;20916;-67
2023/08/23 11:06:54;;;;;;;2.67;1.70;;;26.50;99.90;;;;;;4983525;28;20177;-68
2023/08/23 11:09:20;;;;;;;2.07;1.70;;;26.80;99.90;;;;;;4973380;28;20186;-68
2023/08/23 11:11:49;;;;;;;3.20;2.57;;;26.70;99.90;;;;;;4948539;28;20431;-67
2023/08/23 11:14:14;;;;;;;2.00;1.70;;;26.90;99.90;;;;;;4977599;28;20946;-68
2023/08/23 11:16:40;;;;;;;1.80;1.40;;;26.90;99.90;;;;;;4980590;28;20481;-67
2023/08/23 11:19:07;;;;;;;3.60;1.97;;;26.50;99.90;;;;;;4987630;28;20176;-67
2023/08/23 11:21:35;;;;;;;2.50;1.60;;;26.80;99.90;;;;;;4982954;28;20215;-68
2023/08/23 11:24:05;;;;;;;1.83;1.47;;;26.90;99.90;;;;;;4970675;28;20732;-66
2023/08/23 11:26:35;;;;;;;2.60;1.60;;;27.20;99.90;;;;;;4981986;28;20419;-66
2023/08/23 11:29:00;;;;;;;1.63;1.27;;;27.30;99.90;;;;;;4979152;28;21114;-66
2023/08/23 11:31:29;;;;;;;3.33;1.80;;;27.20;99.90;;;;;;4986115;28;20427;-66
2023/08/23 11:33:59;;;;;;;2.70;1.50;;;26.70;99.90;;;;;;4991196;28;20278;-68
2023/08/23 11:36:27;;;;;;;3.33;1.90;;;26.40;99.90;;;;;;4978014;28;20424;-69
2023/08/23 11:38:53;;;;;;;2.50;1.50;;;26.30;99.90;;;;;;4989014;28;20804;-69
2023/08/23 11:41:28;;;;;;;1.93;1.70;;;26.20;99.90;;;;;;4976787;28;20467;-69
2023/08/23 11:43:54;;;;;;;1.80;1.70;;;26.40;99.90;;;;;;4975748;28;20453;-68
2023/08/23 11:46:20;;;;;;;2.33;1.53;;;26.00;99.90;;;;;;4977342;28;20416;-70
2023/08/23 11:48:46;;;;;;;2.47;1.60;;;26.30;99.90;;;;;;4979663;28;20529;-69
2023/08/23 11:51:11;;;;;;;5.37;1.47;;;26.50;99.90;;;;;;4982820;28;20191;-68
2023/08/23 11:53:37;;;;;;;2.60;2.40;;;26.90;99.90;;;;;;4984447;28;20207;-68
2023/08/23 11:56:06;;;;;;;1.73;1.63;;;26.90;99.90;;;;;;4984264;28;20189;-69
2023/08/23 11:58:32;;;;;;;1.50;1.40;;;26.90;99.90;;;;;;4983047;28;20215;-69
2023/08/23 12:00:58;;;;;;;4.53;1.73;;;26.90;99.90;;;;;;4979266;28;21050;-69
2023/08/23 12:03:24;;;;;;;1.43;1.33;;;26.80;99.90;;;;;;4984545;28;20528;-68
2023/08/23 12:05:49;;;;;;;1.80;1.40;;;27.10;99.90;;;;;;4986243;28;20177;-69
2023/08/23 12:08:15;;;;;;;2.97;2.77;;;27.00;99.90;;;;;;4979331;28;20180;-69
2023/08/23 12:10:41;;;;;;;2.07;1.80;;;26.90;99.90;;;;;;4983735;28;20189;-69
2023/08/23 12:13:06;;;;;;;1.63;1.53;;;27.10;99.90;;;;;;4982711;28;20205;-69
2023/08/23 12:15:32;;;;;;;6.17;4.73;;;26.90;99.90;;;;;;4983325;28;20177;-69
2023/08/23 12:17:58;;;;;;;5.00;4.53;;;26.90;99.90;;;;;;4982043;28;20471;-69
2023/08/23 12:20:23;;;;;;;5.50;3.80;;;27.00;99.90;;;;;;4989439;28;20256;-69
2023/08/23 12:22:50;;;;;;;3.40;3.10;;;26.80;99.90;;;;;;4984579;28;20204;-69
2023/08/23 12:25:16;;;;;;;4.23;3.93;;;26.90;99.90;;;;;;4985530;28;20597;-69
2023/08/23 12:27:42;;;;;;;2.93;2.67;;;27.20;99.90;;;;;;4985726;28;20525;-69
2023/08/23 12:30:11;;;;;;;3.90;3.40;;;27.50;99.90;;;;;;4984432;28;20507;-69
2023/08/23 12:32:37;;;;;;;10.07;6.60;;;27.70;99.90;;;;;;4970811;28;20527;-69
2023/08/23 12:35:06;;;;;;;3.50;3.20;;;27.90;99.90;;;;;;4984765;28;20563;-69
2023/08/23 12:37:32;;;;;;;3.20;2.63;;;27.80;98.80;;;;;;4985320;28;20188;-70
2023/08/23 12:39:58;;;;;;;4.53;2.10;;;27.60;99.10;;;;;;4986081;28;20417;-68
2023/08/23 12:42:24;;;;;;;4.70;4.00;;;27.90;98.90;;;;;;4966324;28;20221;-70